Tiempo atmosférico en la estación meteorológica de Madrid, El Goloso, Madrid (740 m.)



Fecha
DESCASC
Temp. máxima en grados centígrados (hora)
DESCASC
Temp. mínima en grados centígrados (hora)
DESCASC
Temp. media en grados centígrados
DESCASC
Racha de viento máxima en m/sg (hora)
DESCASC
Velocidad máxima media en intervalos de 10 minutos(hora)
DESCASC
Precipitaciones diarias en mm
DESCASC
Precipitaciones de 00:00 a 06:00 en mm
DESCASC
Precipitaciones de 06:00 a 12:00 en mm
DESCASC
Precipitaciones de 12:00 a 18:00 en mm
DESCASC
Precipitaciones de 18:00 a 24:00 en mm
DESCASC
24-09-2020 21.2 (18:20) 15 (23:50) 18.1 10.83 (23:00) 3.61 (18:10) 1 0 1 0 0
23-09-2020 21.9 (16:40) 14.3 (00:00) 18.1 6.67 (14:40) 1.94 (15:20) 0.8 0 0 0 0.8
22-09-2020 22.5 (17:30) 11.7 (00:00) 17.1 5.56 (15:10) 2.5 (17:30) 0 0 0 0 0
21-09-2020 22.1 (17:10) 12.6 (00:00) 17.4 -- (--) -- (--) 0.2 0 0.2 0 0
20-09-2020 21.1 (17:20) 14.6 (00:00) 17.9 6.11 (12:40) 2.78 (17:50) 6.8 0 0 4.6 2.2
19-09-2020 18.3 (19:10) 12.8 (00:00) 15.5 9.44 (01:10) 3.89 (01:20) 13.8 13.2 0.2 0.2 0.2
18-09-2020 21 (14:10) 13.9 (00:00) 17.4 6.94 (14:40) 3.06 (09:00) 10.8 2.2 0.2 5 3.4
17-09-2020 24.5 (14:40) 16.6 (00:00) 20.6 7.5 (00:30) 3.33 (00:20) 8.8 0.2 0.4 0 8.2
16-09-2020 28.4 (17:30) 15.7 (00:00) 22 -- (--) -- (--) 2.8 0 0 0 2.8
15-09-2020 26.6 (18:10) 16.9 (00:00) 21.8 5.28 (16:10) 2.5 (15:40) 13.4 9.6 3.8 0 0
14-09-2020 28.4 (17:40) 16.5 (00:00) 22.4 9.72 (21:00) 4.17 (21:00) 0 0 0 0 0
13-09-2020 30.8 (17:20) 17 (00:00) 23.9 -- (--) -- (--) 0 0 0 0 0
12-09-2020 29.9 (17:30) 15.9 (00:00) 22.9 5.56 (17:30) 2.5 (01:40) 0 0 0 0 0
11-09-2020 29.5 (18:00) 15.6 (00:00) 22.6 6.67 (17:50) 2.5 (17:50) 0 0 0 0 0
10-09-2020 28 (16:40) 14 (00:00) 21 7.22 (01:10) 3.33 (01:30) 0 0 0 0 0
09-09-2020 26.7 (17:20) 11.6 (00:00) 19.2 8.33 (17:20) 2.5 (14:50) 0 0 0 0 0
08-09-2020 -- (--) -- (--) -- -- (--) -- (--) -- 0 -- -- 0
07-09-2020 25.4 (17:40) 11.7 (08:20) 18.5 7.78 (11:50) 3.61 (18:40) 0 0 0 0 0
06-09-2020 30.9 (18:30) 14.9 (00:00) 22.9 6.11 (19:50) 3.33 (19:50) 0 0 0 0 0
05-09-2020 30.7 (18:20) 14.7 (00:00) 22.7 5 (14:10) 2.5 (17:00) 0 0 0 0 0
04-09-2020 29.4 (18:00) 15.3 (00:00) 22.3 5.56 (15:10) 2.22 (00:20) 0 0 0 0 0
03-09-2020 28.9 (18:00) 13.3 (00:00) 21.1 5 (18:20) 2.22 (17:30) 0 0 0 0 0
02-09-2020 27.1 (17:30) 12.8 (00:00) 20 6.39 (01:50) 2.78 (01:50) 0 0 0 0 0
01-09-2020 25.7 (18:00) 12.8 (00:00) 19.3 5.83 (16:10) 2.5 (16:10) 0 0 0 0 0
31-08-2020 23.6 (18:30) 9 (00:00) 16.3 -- (--) -- (--) 0 0 0 0 0
30-08-2020 21.1 (18:30) 8.4 (00:00) 14.8 -- (--) -- (--) 0 0 0 0 0
29-08-2020 -- (--) -- (--) -- -- (--) -- (--) -- -- -- 0 0
28-08-2020 -- (--) -- (--) -- -- (--) -- (--) -- 0 -- 0 --

Gráficas

Temp. máximas Temp. mínimas Temp. medias Precipitaciones Rachas de viento máximas Velocidades máximas media en intervalos de 10 minutos

Datos horarios

Fecha y hora oficial Temperatura (ºC) Velocidad del viento (km/h) Dirección del viento Racha (km/h) Dirección de racha Precipitación (mm) Presión (hPa) Tendencia (hPa) Humedad (%)
2020-09-26 23:00:00 15.4 7 Sur 25 Sur 0 -- -- 66
2020-09-26 22:00:00 16 6 Sur 20 Sudoeste 0 -- -- 56
2020-09-26 21:00:00 16.5 3 Oeste 21 Noroeste 0 -- -- 51
2020-09-26 20:00:00 17.2 4 Noroeste 23 Noroeste 0 -- -- 48
2020-09-26 19:00:00 18 8 Noroeste 32 Noroeste 0 -- -- 45
2020-09-26 18:00:00 19.6 12 Noroeste 27 Noroeste 0 -- -- 42
2020-09-26 17:00:00 19 4 Oeste 21 Noroeste 0 -- -- 43
2020-09-26 16:00:00 18.7 3 Oeste 28 Sur 0 -- -- 44
2020-09-26 15:00:00 18.4 3 Sudoeste 18 Noroeste 0 -- -- 45
2020-09-26 14:00:00 17.5 4 Sudoeste 20 Sur 0 -- -- 45
2020-09-26 13:00:00 16.2 3 Sudoeste 10 Sur 0 -- -- 46
2020-09-26 12:00:00 15.1 3 Sudoeste 11 Sur 0 -- -- 48
2020-09-26 11:00:00 13.7 4 Sur 8 Sudeste 0 -- -- 52
2020-09-26 10:00:00 10.6 2 Este 5 Sudeste 0 -- -- 64
2020-09-26 09:00:00 8.3 2 Noroeste 7 Noroeste 0 -- -- 73
2020-09-26 08:00:00 7.4 0 Calma 3 Sudoeste 0 -- -- 74
2020-09-26 07:00:00 8.2 0 Calma 6 Sur 0 -- -- 71
2020-09-26 06:00:00 8 2 Sudeste 5 Este 0 -- -- 72
2020-09-26 05:00:00 9.4 2 Este 9 Sur 0 -- -- 66
2020-09-26 04:00:00 10.1 4 Sur 10 Sur 0 -- -- 63
2020-09-26 03:00:00 9.9 3 Sur 9 Sur 0 -- -- 63
2020-09-26 02:00:00 10.3 0 Calma 13 Nordeste 0 -- -- 63
2020-09-26 01:00:00 10.6 2 Norte 10 Norte 0 -- -- 60
2020-09-26 00:00:00 11.2 0 Calma 9 Noroeste 0 -- -- 58
2020-09-25 23:00:00 12.2 5 Noroeste 13 Noroeste 0 -- -- 52
2020-09-25 22:00:00 13.6 9 Noroeste 18 Noroeste 0 -- -- 46
2020-09-25 21:00:00 14.3 6 Noroeste 25 Noroeste 0 -- -- 44
2020-09-25 20:00:00 15.3 4 Noroeste 26 Noroeste 0 -- -- 43
2020-09-25 19:00:00 16.4 9 Noroeste 28 Noroeste 0 -- -- 40
2020-09-25 18:00:00 17.3 11 Noroeste 29 Noroeste 0 -- -- 37
2020-09-25 17:00:00 17.6 5 Noroeste 26 Noroeste 0 -- -- 36
2020-09-25 16:00:00 17.4 5 Noroeste 17 Noroeste 0 -- -- 38
2020-09-25 15:00:00 17 4 Noroeste 18 Noroeste 0 -- -- 38
2020-09-25 14:00:00 16.7 3 Sudoeste 18 Sudoeste 0 -- -- 39
2020-09-25 13:00:00 16.5 4 Este 13 Sudeste 0 -- -- 39
2020-09-25 12:00:00 14.6 4 Sudoeste 13 Sudoeste 0 -- -- 44
2020-09-25 11:00:00 13.5 3 Oeste 22 Noroeste 0 -- -- 51
2020-09-25 10:00:00 12.2 6 Noroeste 24 Sudeste 0 -- -- 52
2020-09-25 09:00:00 11.5 2 Oeste 13 Noroeste 0 -- -- 55
2020-09-25 08:00:00 11.2 4 Noroeste 41 Noroeste 0 -- -- 58
2020-09-25 07:00:00 11.9 12 Oeste 51 Noroeste 0 -- -- 59
2020-09-25 06:00:00 12.7 14 Noroeste 45 Noroeste 0 -- -- 59
2020-09-25 05:00:00 12.9 17 Noroeste 44 Noroeste 0 -- -- 61
2020-09-25 04:00:00 12.9 5 Oeste 40 Noroeste 0 -- -- 63
2020-09-25 03:00:00 13.5 9 Noroeste 31 Noroeste 0 -- -- 63
2020-09-25 02:00:00 14 12 Noroeste 34 Noroeste 0 -- -- 59
2020-09-25 01:00:00 14.3 12 Noroeste 31 Noroeste 0 -- -- 58
2020-09-25 00:00:00 15 12 Noroeste 33 Oeste 0 -- -- 55
2020-09-24 23:00:00 15.8 9 Oeste 39 Noroeste 0 -- -- 55
2020-09-24 22:00:00 17 3 Oeste 28 Noroeste 0 -- -- 54
2020-09-24 21:00:00 18.3 9 Noroeste 36 Noroeste 0 -- -- 46
2020-09-24 20:00:00 19.2 10 Noroeste 32 Noroeste 0 -- -- 45
2020-09-24 19:00:00 20.8 6 Noroeste 33 Noroeste 0 -- -- 44
2020-09-24 18:00:00 20.9 13 Noroeste 34 Noroeste 0 -- -- 51
2020-09-24 17:00:00 20.3 4 Oeste 19 Oeste 0 -- -- 60
2020-09-24 16:00:00 21 6 Sudoeste 28 Sur 0 -- -- 65
2020-09-24 15:00:00 20.3 7 Sudoeste 23 Sudoeste 0 -- -- 67
2020-09-24 14:00:00 19.8 6 Sudoeste 22 Sudoeste 0 -- -- 71
2020-09-24 13:00:00 18.7 5 Oeste 22 Sur 0 -- -- 79
2020-09-24 12:00:00 17.9 5 Oeste 15 Sudoeste 0 -- -- 87
2020-09-24 11:00:00 16.7 3 Oeste 15 Sur 0 -- -- 94
2020-09-24 10:00:00 15.9 3 Oeste 10 Sur 0.4 -- -- 96
2020-09-24 09:00:00 15.9 0 Calma 6 Noroeste 0.6 -- -- 96
2020-09-24 08:00:00 15.8 2 Oeste 12 Sur 0 -- -- 95
2020-09-24 07:00:00 15.7 0 Calma 10 Sur 0 -- -- 95
2020-09-24 06:00:00 15.6 0 Calma 6 Sur 0 -- -- 95
2020-09-24 05:00:00 15.4 0 Calma 3 Sur 0 -- -- 94
2020-09-24 04:00:00 15.6 0 Calma 9 Sudoeste 0 -- -- 91
2020-09-24 03:00:00 15.8 0 Calma 5 Sudoeste 0 -- -- 89
2020-09-24 02:00:00 16.5 0 Calma 8 Sudoeste 0 -- -- 82
2020-09-24 01:00:00 16.2 2 Oeste 6 Sur 0 -- -- 86
2020-09-24 00:00:00 16.2 0 Calma 4 Sudoeste 0 -- -- 88
2020-09-23 23:00:00 16 0 Calma 6 Oeste 0 -- -- 90
2020-09-23 22:00:00 16.5 0 Calma 5 Noroeste 0.2 -- -- 88
2020-09-23 21:00:00 17.4 0 Calma 6 Noroeste 0.2 -- -- 89
2020-09-23 20:00:00 18 0 Calma 5 Sudoeste 0 -- -- 88
2020-09-23 19:00:00 18.8 3 Noroeste 17 Noroeste 0.4 -- -- 83
2020-09-23 18:00:00 20.6 0 Calma 15 Noroeste 0 -- -- 65
2020-09-23 17:00:00 21.4 4 Oeste 18 Sur 0 -- -- 63
2020-09-23 16:00:00 21.7 5 Sudoeste 20 Sudoeste 0 -- -- 56
2020-09-23 15:00:00 21.7 5 Sudoeste 24 Sudoeste 0 -- -- 57
2020-09-23 14:00:00 21.4 6 Sudoeste 22 Sur 0 -- -- 57
2020-09-23 13:00:00 19.8 3 Oeste 16 Sudoeste 0 -- -- 66
2020-09-23 12:00:00 18.5 3 Oeste 14 Noroeste 0 -- -- 73
2020-09-23 11:00:00 17.2 3 Oeste 15 Sur 0 -- -- 81
2020-09-23 10:00:00 16.2 2 Oeste 10 Sudoeste 0 -- -- 86
2020-09-23 09:00:00 15 0 Calma 4 Noroeste 0 -- -- 88
2020-09-23 08:00:00 15 0 Calma 4 Sur 0 -- -- 87
2020-09-23 07:00:00 15 0 Calma 3 Sur 0 -- -- 85
2020-09-23 06:00:00 15 0 Calma 3 Sudoeste 0 -- -- 83
2020-09-23 05:00:00 15.4 0 Calma 7 Sudoeste 0 -- -- 80
2020-09-23 04:00:00 15.5 0 Calma 8 Sur 0 -- -- 79
2020-09-23 03:00:00 14.5 0 Calma 2 Noroeste 0 -- -- 83
2020-09-23 02:00:00 14.9 0 Calma 4 Sudoeste 0 -- -- 80
2020-09-23 01:00:00 15.8 0 Calma 4 Sudoeste 0 -- -- 76
2020-09-23 00:00:00 16.3 0 Calma 6 Sur 0 -- -- 71
2020-09-22 23:00:00 16.6 2 Sudoeste 4 Sur 0 -- -- 73
2020-09-22 22:00:00 18.1 0 Calma 5 Noroeste 0 -- -- 66
2020-09-22 21:00:00 19.5 0 Calma 7 Sudoeste 0 -- -- 61
2020-09-22 20:00:00 21 2 Oeste 13 Sudoeste 0 -- -- 55
2020-09-22 19:00:00 21.9 3 Oeste 12 Sur 0 -- -- 51
2020-09-22 18:00:00 22 4 Sudoeste 18 Sudoeste 0 -- -- 47
2020-09-22 17:00:00 22.1 5 Sur 18 Sur 0 -- -- 44
2020-09-22 16:00:00 22.1 4 Sudoeste 20 Sudeste 0 -- -- 44
2020-09-22 15:00:00 22.3 6 Sur 16 Sudoeste 0 -- -- 44
2020-09-22 14:00:00 21.7 7 Sur 19 Sudoeste 0 -- -- 50
2020-09-22 13:00:00 20.7 4 Sudeste 13 Sudoeste 0 -- -- 57
2020-09-22 12:00:00 19.1 4 Sudeste 9 Sudeste 0 -- -- 62
2020-09-22 11:00:00 17.6 4 Sudeste 8 Sudeste 0 -- -- 71
2020-09-22 10:00:00 15.1 3 Este 7 Este 0 -- -- 82
2020-09-22 09:00:00 12.7 2 Sudeste 4 Este 0 -- -- 89
2020-09-22 08:00:00 12 0 Calma 5 Sudeste 0 -- -- 89
2020-09-22 07:00:00 11.7 0 Calma 4 Norte 0 -- -- 90
2020-09-22 06:00:00 12 0 Calma 4 Noroeste 0 -- -- 88
2020-09-22 05:00:00 12 2 Noroeste 2 Norte 0 -- -- 88
2020-09-22 04:00:00 12.2 0 Calma 3 Nordeste 0 -- -- 86
2020-09-22 03:00:00 13.3 0 Calma 6 Nordeste 0 -- -- 82
2020-09-22 02:00:00 14.3 3 Este 13 Nordeste 0 -- -- 80
2020-09-22 01:00:00 15 2 Este 8 Nordeste 0 -- -- 76
2020-09-22 00:00:00 15.4 2 Este 8 Norte 0 -- -- 75
2020-09-21 23:00:00 15.9 0 Calma 4 Sudoeste 0 -- -- 72
2020-09-21 22:00:00 16.8 0 Calma 5 Sudoeste 0 -- -- 65
2020-09-21 21:00:00 17.9 0 Calma 4 Sur 0 -- -- 60
2020-09-21 20:00:00 20 0 Calma 13 Sur 0 -- -- 53
2020-09-21 19:00:00 21.6 4 Sudoeste 14 Sur 0 -- -- 46
2020-09-21 18:00:00 21.9 5 Sur 21 Sur 0 -- -- 44
2020-09-21 17:00:00 21.9 4 Sur 15 Sur 0 -- -- 44
2020-09-21 16:00:00 21.4 8 Sur 19 Sudoeste 0 -- -- 45
2020-09-21 15:00:00 21.8 7 Sur 18 Sur 0 -- -- 47
2020-09-21 14:00:00 19.9 2 Sudoeste 14 Sur 0 -- -- 63
2020-09-21 13:00:00 19.5 4 Oeste 14 Sur 0 -- -- 68
2020-09-21 12:00:00 17.8 2 Sudeste 8 Sur 0 -- -- 83
2020-09-21 11:00:00 14.5 2 Sur 6 Sudeste 0 -- -- 98
2020-09-21 10:00:00 13.8 0 Calma 5 Sudeste 0 -- -- 99
2020-09-21 09:00:00 13 0 Calma 3 Este 0.2 -- -- 99
2020-09-21 08:00:00 12.9 0 Calma 4 Sudeste 0 -- -- 98
2020-09-21 07:00:00 12.8 0 Calma 3 Este 0 -- -- 98
2020-09-21 06:00:00 12.7 0 Calma 4 Norte 0 -- -- 98
2020-09-21 05:00:00 12.9 0 Calma 3 Norte 0 -- -- 98
2020-09-21 04:00:00 13.1 0 Calma 3 Noroeste 0 -- -- 97
2020-09-21 03:00:00 12.8 0 Calma 5 Sur 0 -- -- 96
2020-09-21 02:00:00 13.2 -- -- -- -- 0 -- -- --
2020-09-21 01:00:00 14.3 0 Calma 5 Sudoeste 0 -- -- 95
2020-09-21 00:00:00 14.9 0 Calma 5 Noroeste 0 -- -- 96
2020-09-20 23:00:00 15.6 0 Calma 4 Sudoeste 0 -- -- 94
2020-09-20 22:00:00 16.5 0 Calma 5 Sudoeste 0 -- -- 91
2020-09-20 21:00:00 16.5 0 Calma 4 Sur 0 -- -- 93
2020-09-20 20:00:00 17.2 0 Calma 6 Sur 0 -- -- 91
2020-09-20 19:00:00 17.6 2 Noroeste 13 Noroeste 2.2 -- -- 91
2020-09-20 18:00:00 17.7 5 Noroeste 22 Noroeste 4.6 -- -- 86
2020-09-20 17:00:00 20.6 3 Oeste 18 Sur 0 -- -- 65
2020-09-20 16:00:00 20.5 6 Sudoeste 21 Sudoeste 0 -- -- 65
2020-09-20 15:00:00 20.4 5 Sudoeste 21 Sudoeste 0 -- -- 67
2020-09-20 14:00:00 19.1 4 Sudoeste 17 Sur 0 -- -- 72
2020-09-20 13:00:00 18.6 3 Oeste 22 Sudoeste 0 -- -- 75
2020-09-20 12:00:00 17.7 3 Oeste 13 Sudoeste 0 -- -- 79
2020-09-20 11:00:00 16.6 2 Oeste 12 Sudoeste 0 -- -- 83
2020-09-20 10:00:00 15.6 2 Oeste 9 Sudoeste 0 -- -- 91
2020-09-20 09:00:00 14.8 0 Calma 9 Sur 0 -- -- 94
2020-09-20 08:00:00 14.6 0 Calma 9 Sudoeste 0 -- -- 94
2020-09-20 07:00:00 14.6 2 Oeste 9 Sudoeste 0 -- -- 92
2020-09-20 06:00:00 15 2 Oeste 8 Sudoeste 0 -- -- 90
2020-09-20 05:00:00 15.4 0 Calma 10 Sur 0 -- -- 87
2020-09-20 04:00:00 15.3 0 Calma 6 Oeste 0 -- -- 86
2020-09-20 03:00:00 15.3 0 Calma 3 Oeste 0 -- -- 84
2020-09-20 02:00:00 15.3 0 Calma 4 Sur 0 -- -- 83
2020-09-20 01:00:00 14.8 0 Calma 4 Sudoeste 0 -- -- 83
2020-09-20 00:00:00 15.2 0 Calma 3 Noroeste 0.2 -- -- 86
2020-09-19 23:00:00 15.5 0 Calma 6 Sur 0 -- -- 79
2020-09-19 22:00:00 16.2 0 Calma 13 Sur 0 -- -- 73
2020-09-19 21:00:00 16.4 3 Oeste 10 Sur 0 -- -- 72
2020-09-19 20:00:00 17.1 2 Oeste 10 Sudoeste 0 -- -- 71
2020-09-19 19:00:00 18 3 Oeste 19 Oeste 0 -- -- 70
2020-09-19 18:00:00 18 4 Oeste 21 Oeste 0 -- -- 72
2020-09-19 17:00:00 17.4 3 Oeste 17 Sudoeste 0 -- -- 82
2020-09-19 16:00:00 16.5 4 Sudoeste 15 Sur 0 -- -- 89
2020-09-19 15:00:00 16.9 4 Oeste 29 Sur 0 -- -- 81
2020-09-19 14:00:00 16.4 5 Oeste 21 Sudoeste 0 -- -- 82
2020-09-19 13:00:00 15.9 6 Sudoeste 26 Sudoeste 0.2 -- -- 86
2020-09-19 12:00:00 15.6 5 Oeste 22 Sudoeste 0 -- -- 87
2020-09-19 11:00:00 15.5 5 Sudoeste 24 Sudoeste 0 -- -- 87
2020-09-19 10:00:00 14.4 4 Sudoeste 21 Sudoeste 0 -- -- 92
2020-09-19 09:00:00 14.1 3 Sudoeste 21 Sudoeste 0 -- -- 95
2020-09-19 08:00:00 14.1 4 Sudoeste 19 Sur 0 -- -- 96
2020-09-19 07:00:00 14.1 7 Sur 17 Sur 0.2 -- -- 97
2020-09-19 06:00:00 13.6 3 Sur 8 Sur 0 -- -- 97
2020-09-19 05:00:00 13.7 3 Sudoeste 16 Sudoeste 3 -- -- 97
2020-09-19 04:00:00 13.8 4 Sur 15 Sudoeste 1 -- -- 97
2020-09-19 03:00:00 13.5 4 Sur 19 Sudoeste 1.8 -- -- 97
2020-09-19 02:00:00 12.8 7 Sur 34 Sur 7.4 -- -- 93
2020-09-19 01:00:00 14.7 8 Sudeste 19 Sudeste 0 -- -- 98
2020-09-19 00:00:00 13.9 3 Este 10 Sudeste 0 -- -- 97
2020-09-18 23:00:00 13.9 3 Este 9 Nordeste 0.2 -- -- 96
2020-09-18 22:00:00 14.2 2 Este 4 Sudeste 0 -- -- 95
2020-09-18 21:00:00 14.2 0 Calma 13 Sudeste 0.2 -- -- 94
2020-09-18 20:00:00 14.5 3 Sudeste 6 Este 0.4 -- -- 92
2020-09-18 19:00:00 14.7 2 Noroeste 15 Sudeste 2.6 -- -- 90
2020-09-18 18:00:00 16.5 8 Sur 23 Sur 4.4 -- -- 86
2020-09-18 17:00:00 18.2 3 Sudoeste 16 Sur 0.4 -- -- 77
2020-09-18 16:00:00 19.2 8 Sudeste 19 Este 0.2 -- -- 80
2020-09-18 15:00:00 19.7 10 Sudeste 25 Sudeste 0 -- -- 69
2020-09-18 14:00:00 20.5 6 Sur 14 Sur 0 -- -- 68
2020-09-18 13:00:00 18.6 3 Sur 9 Noroeste 0 -- -- 73
2020-09-18 12:00:00 17.7 3 Oeste 14 Sur 0 -- -- 76
2020-09-18 11:00:00 18.2 4 Sudoeste 22 Sur 0 -- -- 77
2020-09-18 10:00:00 17.9 7 Sur 15 Sur 0 -- -- 76
2020-09-18 09:00:00 17.1 11 Sur 21 Sur 0 -- -- 78
2020-09-18 08:00:00 16.3 3 Sur 14 Sur 0 -- -- 85
2020-09-18 07:00:00 16.5 5 Sur 14 Sur 0.2 -- -- 87
2020-09-18 06:00:00 16.5 4 Sudeste 11 Sudeste 0 -- -- 96
2020-09-18 05:00:00 16.2 2 Este 5 Este 0 -- -- 96
2020-09-18 04:00:00 16.3 2 Este 13 Este 0 -- -- 97
2020-09-18 03:00:00 16.3 4 Este 13 Este 0 -- -- 97
2020-09-18 02:00:00 16.2 4 Este 11 Este 1.2 -- -- 96
2020-09-18 01:00:00 16.4 2 Este 12 Este 1 -- -- 95
2020-09-18 00:00:00 16.6 3 Nordeste 20 Sur 3 -- -- 94
2020-09-17 23:00:00 17.1 6 Sudoeste 23 Sur 4.4 -- -- 92
2020-09-17 22:00:00 18.3 7 Noroeste 12 Noroeste 0 -- -- 78
2020-09-17 21:00:00 20.7 2 Noroeste 12 Sur 0.8 -- -- 79
2020-09-17 20:00:00 23.1 3 Sudeste 10 Sudoeste 0 -- -- 60
2020-09-17 19:00:00 24.1 8 Sudeste 17 Sur 0 -- -- 56
2020-09-17 18:00:00 24 5 Sur 19 Sur 0 -- -- 56
2020-09-17 17:00:00 24 6 Sur 24 Sur 0 -- -- 56
2020-09-17 16:00:00 24 6 Sur 22 Sur 0 -- -- 57
2020-09-17 15:00:00 24.1 8 Sur 23 Sur 0 -- -- 55
2020-09-17 14:00:00 23.5 4 Sudoeste 15 Sudoeste 0 -- -- 61
2020-09-17 13:00:00 23 8 Sudeste 19 Sudeste 0 -- -- 64
2020-09-17 12:00:00 21.6 5 Este 13 Sudeste 0 -- -- 71
2020-09-17 11:00:00 20.2 6 Nordeste 13 Nordeste 0 -- -- 77
2020-09-17 10:00:00 18 3 Nordeste 9 Nordeste 0 -- -- 88
2020-09-17 09:00:00 17.2 3 Nordeste 7 Este 0 -- -- 89
2020-09-17 08:00:00 17.4 0 Calma 6 Sur 0.4 -- -- 88
2020-09-17 07:00:00 17.8 0 Calma 9 Sudoeste 0 -- -- 85
2020-09-17 06:00:00 17.7 0 Calma 4 Sudoeste 0.2 -- -- 82
2020-09-17 05:00:00 18 0 Calma 6 Noroeste 0 -- -- 80
2020-09-17 04:00:00 18.1 0 Calma 5 Oeste 0 -- -- 78
2020-09-17 03:00:00 18.4 3 Noroeste 9 Noroeste 0 -- -- 78
2020-09-17 02:00:00 18.9 2 Oeste 14 Sudoeste 0 -- -- 74
2020-09-17 01:00:00 19 0 Calma 27 Norte 0 -- -- 74
2020-09-17 00:00:00 17.8 6 Noroeste 18 Sur 0.8 -- -- 86
2020-09-16 23:00:00 20.6 8 Sur 30 Sudoeste 2 -- -- 71
2020-09-16 22:00:00 23 2 Sudeste 4 Sudeste 0 -- -- 48
2020-09-16 21:00:00 23.8 0 Calma 4 Sudoeste 0 -- -- 45
2020-09-16 20:00:00 26.1 0 Calma 9 Sudeste 0 -- -- 38
2020-09-16 19:00:00 27.9 3 Sudeste 13 Sudoeste 0 -- -- 37
2020-09-16 18:00:00 28.1 -- -- -- -- -- -- -- --
2020-09-16 17:00:00 28.2 5 Sudoeste 19 Sudoeste 0 -- -- 37
2020-09-16 16:00:00 27.6 6 Sur 16 Sur 0 -- -- 39
2020-09-16 15:00:00 27.9 8 Sudeste 16 Sur 0 -- -- 40
2020-09-16 14:00:00 27.3 5 Este 14 Este 0 -- -- 44
2020-09-16 13:00:00 25.9 5 Sudeste 12 Sudeste 0 -- -- 51
2020-09-16 12:00:00 23.7 3 Este 10 Sudeste 0 -- -- 52
2020-09-16 11:00:00 22.4 4 Este 10 Nordeste 0 -- -- 57
2020-09-16 10:00:00 19.3 4 Nordeste 8 Este 0 -- -- 66
2020-09-16 09:00:00 16.3 3 Este 6 Nordeste 0 -- -- 75
2020-09-16 08:00:00 15.8 2 Sudeste 5 Sudeste 0 -- -- 77
2020-09-16 07:00:00 15.8 2 Sudeste 6 Este 0 -- -- 76
2020-09-16 06:00:00 15.7 4 Sudeste 6 Sudeste 0 -- -- 77
2020-09-16 05:00:00 16.4 3 Nordeste 8 Este 0 -- -- 73
2020-09-16 04:00:00 16.7 4 Este 8 Este 0 -- -- 73
2020-09-16 03:00:00 16 3 Sudeste 5 Sudeste 0 -- -- 76
2020-09-16 02:00:00 16.8 0 Calma 4 Este 0 -- -- 72
2020-09-16 01:00:00 18.1 0 Calma 6 Sudeste 0 -- -- 68
2020-09-16 00:00:00 19.2 2 Noroeste 5 Noroeste 0 -- -- 63
2020-09-15 23:00:00 21 4 Norte 10 Norte 0 -- -- 58
2020-09-15 22:00:00 20.7 3 Norte 5 Noroeste 0 -- -- 60
2020-09-15 21:00:00 21.8 2 Noroeste 4 Noroeste 0 -- -- 56
2020-09-15 20:00:00 25.1 0 Calma 8 Noroeste 0 -- -- 47
2020-09-15 19:00:00 26.4 3 Oeste 10 Norte 0 -- -- 42
2020-09-15 18:00:00 26.4 4 Oeste 15 Sur 0 -- -- 41
2020-09-15 17:00:00 26.2 5 Sudoeste 19 Norte 0 -- -- 42
2020-09-15 16:00:00 25.4 4 Oeste 16 Sur 0 -- -- 49
2020-09-15 15:00:00 25.1 6 Sur 17 Noroeste 0 -- -- 50
2020-09-15 14:00:00 25.4 5 Sudeste 13 Sur 0 -- -- 53
2020-09-15 13:00:00 23.9 4 Sudeste 14 Nordeste 0 -- -- 60
2020-09-15 12:00:00 22.3 4 Este 15 Nordeste 0 -- -- 68
2020-09-15 11:00:00 20 7 Nordeste 15 Nordeste 0 -- -- 81
2020-09-15 10:00:00 18.5 5 Nordeste 15 Nordeste 0 -- -- 89
2020-09-15 09:00:00 17 4 Este 11 Nordeste 0 -- -- 93
2020-09-15 08:00:00 17 3 Sudeste 7 Este 0 -- -- 92
2020-09-15 07:00:00 17.1 3 Nordeste 8 Nordeste 3.8 -- -- 92
2020-09-15 06:00:00 17.2 0 Calma 4 Este 5 -- -- 92
2020-09-15 05:00:00 17.4 0 Calma 7 Oeste 2.4 -- -- 90
2020-09-15 04:00:00 17.1 0 Calma 9 Norte 0 -- -- 86
2020-09-15 03:00:00 17.7 0 Calma 17 Sur 1.4 -- -- 85
2020-09-15 02:00:00 22.4 3 Sudoeste 17 Sudoeste 0.8 -- -- 61
2020-09-15 01:00:00 22 4 Sudeste 15 Sudeste 0 -- -- 50
2020-09-15 00:00:00 20.8 2 Sudeste 6 Sudeste 0 -- -- 50
2020-09-14 23:00:00 23.5 0 Calma 21 Sur 0 -- -- 42
2020-09-14 22:00:00 25.5 8 Sudeste 28 Sudeste 0 -- -- 37
2020-09-14 21:00:00 26.1 15 Sudeste 35 Sur 0 -- -- 39
2020-09-14 20:00:00 27.5 4 Sudeste 10 Sudeste 0 -- -- 33
2020-09-14 19:00:00 28 4 Sur 12 Sudeste 0 -- -- 33
2020-09-14 18:00:00 28.3 6 Este 15 Sudeste 0 -- -- 34
2020-09-14 17:00:00 27.9 5 Sudeste 18 Sudeste 0 -- -- 35
2020-09-14 16:00:00 27 5 Nordeste 14 Sudeste 0 -- -- 38
2020-09-14 15:00:00 26.7 4 Sudoeste 19 Sudeste 0 -- -- 39
2020-09-14 14:00:00 25.8 4 Este 14 Sudeste 0 -- -- 42
2020-09-14 13:00:00 24.9 6 Este 17 Este 0 -- -- 44
2020-09-14 12:00:00 23.6 6 Este 15 Sudeste 0 -- -- 47
2020-09-14 11:00:00 22.1 4 Este 15 Este 0 -- -- 51
2020-09-14 10:00:00 21.2 5 Este 12 Este 0 -- -- 54
2020-09-14 09:00:00 17.6 3 Este 8 Este 0 -- -- 65
2020-09-14 08:00:00 16.6 2 Este 9 Nordeste 0 -- -- 67
2020-09-14 07:00:00 16.6 4 Este 10 Nordeste 0 -- -- 67
2020-09-14 06:00:00 17.8 3 Este 9 Nordeste 0 -- -- 61
2020-09-14 05:00:00 18.7 3 Este 8 Nordeste 0 -- -- 59
2020-09-14 04:00:00 19.7 3 Este 9 Sudeste 0 -- -- 55
2020-09-14 03:00:00 20.4 0 Calma 8 Nordeste 0 -- -- 52
2020-09-14 02:00:00 22.3 0 Calma 16 Sudeste 0 -- -- 47
2020-09-14 01:00:00 23.9 7 Sudeste 22 Sudeste 0 -- -- 43
2020-09-14 00:00:00 24 6 Sudeste 15 Sudeste 0 -- -- 40
2020-09-13 23:00:00 24 4 Sudeste 12 Sudeste 0 -- -- 38
2020-09-13 22:00:00 24.7 2 Sur 6 Sur 0 -- -- 36
2020-09-13 21:00:00 26.5 4 Sur 17 Sur 0 -- -- 32
2020-09-13 20:00:00 28.4 2 Sudoeste 14 Sur 0 -- -- 30
2020-09-13 19:00:00 29.4 5 Sur 21 Sur 0 -- -- 27
2020-09-13 18:00:00 29.6 10 Sur 27 Sur 0 -- -- 27
2020-09-13 17:00:00 30.4 10 Sur 23 Sur 0 -- -- 25
2020-09-13 16:00:00 30.2 9 Sur 24 Sur 0 -- -- 26
2020-09-13 15:00:00 29.4 7 Sudeste 19 Sudeste 0 -- -- 29
2020-09-13 14:00:00 28.9 7 Sudeste 21 Sudeste 0 -- -- 34
2020-09-13 13:00:00 27.8 6 Sudeste 17 Sudeste 0 -- -- 36
2020-09-13 12:00:00 26.3 8 Este 18 Sudeste 0 -- -- 39
2020-09-13 11:00:00 24.2 5 Este 14 Este 0 -- -- 44
2020-09-13 10:00:00 21.3 -- -- -- -- 0 -- -- --
2020-09-13 09:00:00 17.7 2 Este 6 Este 0 -- -- 61
2020-09-13 08:00:00 17.2 3 Este 8 Nordeste 0 -- -- 61
2020-09-13 07:00:00 17.7 3 Nordeste 9 Este 0 -- -- 58
2020-09-13 06:00:00 17.8 3 Este 9 Nordeste 0 -- -- 57
2020-09-13 05:00:00 18.4 2 Este 9 Nordeste 0 -- -- 53
2020-09-13 04:00:00 19.7 4 Nordeste 10 Nordeste 0 -- -- 49
2020-09-13 03:00:00 20.8 6 Este 15 Nordeste 0 -- -- 44
2020-09-13 02:00:00 21.8 8 Nordeste 18 Nordeste 0 -- -- 40
2020-09-13 01:00:00 22.2 8 Nordeste 17 Nordeste 0 -- -- 33
2020-09-13 00:00:00 22.6 0 Calma 12 Noroeste 0 -- -- 35
2020-09-12 23:00:00 23.3 6 Norte 9 Norte 0 -- -- 34
2020-09-12 22:00:00 22.3 0 Calma 2 Sudoeste 0 -- -- 35
2020-09-12 21:00:00 24.6 0 Calma 4 Sudoeste 0 -- -- 34
2020-09-12 20:00:00 28.4 2 Sudeste 11 Sudeste 0 -- -- 28
2020-09-12 19:00:00 29.5 4 Sudeste 12 Sudeste 0 -- -- 25
2020-09-12 18:00:00 29.9 8 Sur 20 Sur 0 -- -- 26
2020-09-12 17:00:00 29.6 7 Este 18 Este 0 -- -- 26
2020-09-12 16:00:00 29.6 7 Sur 16 Sur 0 -- -- 27
2020-09-12 15:00:00 29.6 4 Nordeste 15 Sudeste 0 -- -- 28
2020-09-12 14:00:00 28.4 6 Sur 14 Sudeste 0 -- -- 32
2020-09-12 13:00:00 27.2 5 Sudeste 13 Sudeste 0 -- -- 35
2020-09-12 12:00:00 25.8 5 Sudeste 12 Este 0 -- -- 38
2020-09-12 11:00:00 23.7 6 Este 13 Este 0 -- -- 42
2020-09-12 10:00:00 20.3 5 Este 11 Sudeste 0 -- -- 47
2020-09-12 09:00:00 17 3 Este 6 Este 0 -- -- 51
2020-09-12 08:00:00 15.9 2 Este 6 Este 0 -- -- 53
2020-09-12 07:00:00 16.5 3 Este 6 Este 0 -- -- 52
2020-09-12 06:00:00 17.5 2 Este 9 Este 0 -- -- 48
2020-09-12 05:00:00 18.8 5 Nordeste 13 Nordeste 0 -- -- 45
2020-09-12 04:00:00 19.8 3 Este 19 Nordeste 0 -- -- 46
2020-09-12 03:00:00 21.6 6 Nordeste 19 Este 0 -- -- 43
2020-09-12 02:00:00 22.2 8 Nordeste 19 Este 0 -- -- 41
2020-09-12 01:00:00 20.7 7 Nordeste 17 Este 0 -- -- 35
2020-09-12 00:00:00 20.3 2 Este 9 Nordeste 0 -- -- 41
2020-09-11 23:00:00 22.4 3 Nordeste 8 Noroeste 0 -- -- 37
2020-09-11 22:00:00 22.8 0 Calma 5 Sur 0 -- -- 35
2020-09-11 21:00:00 24.1 0 Calma 5 Sur 0 -- -- 33
2020-09-11 20:00:00 27.6 4 Sur 14 Sur 0 -- -- 28
2020-09-11 19:00:00 28.6 6 Sur 17 Sudeste 0 -- -- 27
2020-09-11 18:00:00 29.5 5 Sur 24 Sur 0 -- -- 26
2020-09-11 17:00:00 28.8 5 Sur 16 Sudoeste 0 -- -- 28
2020-09-11 16:00:00 28.8 4 Oeste 16 Sudeste 0 -- -- 27
2020-09-11 15:00:00 28.8 4 Oeste 17 Sur 0 -- -- 28
2020-09-11 14:00:00 28.4 7 Sur 22 Sudoeste 0 -- -- 30
2020-09-11 13:00:00 27.5 6 Sudeste 16 Sudeste 0 -- -- 32
2020-09-11 12:00:00 25 3 Este 12 Sudeste 0 -- -- 35
2020-09-11 11:00:00 22.9 5 Este 14 Este 0 -- -- 37
2020-09-11 10:00:00 19.9 5 Este 12 Nordeste 0 -- -- 45
2020-09-11 09:00:00 16.4 2 Este 7 Este 0 -- -- 53
2020-09-11 08:00:00 16.6 4 Este 11 Nordeste 0 -- -- 51
2020-09-11 07:00:00 16.8 2 Este 14 Nordeste 0 -- -- 50
2020-09-11 06:00:00 17.6 8 Nordeste 17 Este 0 -- -- 48
2020-09-11 05:00:00 18.1 8 Nordeste 16 Nordeste 0 -- -- 48
2020-09-11 04:00:00 18.5 6 Nordeste 12 Nordeste 0 -- -- 47
2020-09-11 03:00:00 18.1 3 Este 13 Nordeste 0 -- -- 46
2020-09-11 02:00:00 20.3 6 Nordeste 15 Nordeste 0 -- -- 42
2020-09-11 01:00:00 21.2 8 Nordeste 17 Nordeste 0 -- -- 39
2020-09-11 00:00:00 21.3 5 Nordeste 12 Nordeste 0 -- -- 38
2020-09-10 23:00:00 23.1 6 Nordeste 13 Nordeste 0 -- -- 34
2020-09-10 22:00:00 22.2 4 Nordeste 8 Este 0 -- -- 40
2020-09-10 21:00:00 22.8 0 Calma 2 Este 0 -- -- 40
2020-09-10 20:00:00 26.5 0 Calma 10 Este 0 -- -- 34
2020-09-10 19:00:00 27.5 2 Sudeste 12 Sudoeste 0 -- -- 31
2020-09-10 18:00:00 27.8 5 Sur 17 Este 0 -- -- 30
2020-09-10 17:00:00 28 5 Este 17 Sudeste 0 -- -- 32
2020-09-10 16:00:00 27.5 6 Este 18 Nordeste 0 -- -- 33
2020-09-10 15:00:00 27.6 5 Sudeste 20 Este 0 -- -- 32
2020-09-10 14:00:00 26.9 6 Este 21 Sudeste 0 -- -- 33
2020-09-10 13:00:00 26.1 9 Sudeste 18 Sudeste 0 -- -- 38
2020-09-10 12:00:00 24.5 6 Este 20 Sudeste 0 -- -- 41
2020-09-10 11:00:00 22.3 8 Este 18 Este 0 -- -- 46
2020-09-10 10:00:00 19.3 3 Este 13 Este 0 -- -- 52
2020-09-10 09:00:00 15.2 4 Sudeste 9 Este 0 -- -- 63
2020-09-10 08:00:00 14 3 Sudeste 6 Este 0 -- -- 67
2020-09-10 07:00:00 14.6 3 Sudeste 9 Sudeste 0 -- -- 66
2020-09-10 06:00:00 15.4 3 Este 10 Este 0 -- -- 64
2020-09-10 05:00:00 17.2 3 Este 12 Nordeste 0 -- -- 59
2020-09-10 04:00:00 17.8 3 Este 17 Este 0 -- -- 57
2020-09-10 03:00:00 19.1 4 Este 21 Nordeste 0 -- -- 53
2020-09-10 02:00:00 20.2 9 Nordeste 26 Nordeste 0 -- -- 47
2020-09-10 01:00:00 21.5 8 Nordeste 15 Nordeste 0 -- -- 35
2020-09-10 00:00:00 17.6 0 Calma 3 Noroeste 0 -- -- 45
2020-09-09 23:00:00 18.4 0 Calma 4 Noroeste 0 -- -- 43
2020-09-09 22:00:00 21.1 0 Calma 7 Sur 0 -- -- 37
2020-09-09 21:00:00 23.1 0 Calma 6 Sudoeste 0 -- -- 34
2020-09-09 20:00:00 25.4 4 Sudoeste 13 Sur 0 -- -- 31
2020-09-09 19:00:00 26.3 5 Sudoeste 12 Sudoeste 0 -- -- 30
2020-09-09 18:00:00 26.6 6 Sur 30 Este 0 -- -- 29
2020-09-09 17:00:00 26.3 3 Sudoeste 15 Sur 0 -- -- 29
2020-09-09 16:00:00 25.6 5 Noroeste 21 Norte 0 -- -- 30
2020-09-09 15:00:00 26.1 8 Sur 26 Sur 0 -- -- 31
2020-09-09 14:00:00 25.3 6 Sur 17 Sudoeste 0 -- -- 34
2020-09-09 13:00:00 23.3 3 Oeste 14 Sur 0 -- -- 39
2020-09-09 12:00:00 22.1 5 Sur 18 Sur 0 -- -- 40
2020-09-09 11:00:00 21.3 4 Sudeste 10 Sur 0 -- -- 42
2020-09-09 10:00:00 17.2 4 Este 9 Este 0 -- -- 50
2020-09-09 09:00:00 13.4 3 Sudeste 5 Sudeste 0 -- -- 57
2020-09-09 08:00:00 12.4 2 Sudeste 5 Este 0 -- -- 58
2020-09-09 07:00:00 11.6 0 Calma 3 Sudeste 0 -- -- 61
2020-09-09 06:00:00 12.3 0 Calma 4 Norte 0 -- -- 59
2020-09-09 05:00:00 12.4 0 Calma 4 Nordeste 0 -- -- 57
2020-09-09 04:00:00 13.4 0 Calma 4 Nordeste 0 -- -- 54
2020-09-09 03:00:00 13.9 0 Calma 4 Este 0 -- -- 51
2020-09-09 02:00:00 16.1 3 Sudeste 7 Nordeste 0 -- -- 43
2020-09-09 01:00:00 17.6 5 Nordeste 13 Nordeste 0 -- -- 40
2020-09-09 00:00:00 17.9 3 Este 16 Este 0 -- -- 37
2020-09-08 23:00:00 18.6 5 Norte 9 Norte 0 -- -- 37
2020-09-08 22:00:00 18.5 4 Noroeste 6 Noroeste 0 -- -- 37
2020-09-08 21:00:00 19.5 0 Calma 4 Noroeste 0 -- -- 35
2020-09-08 20:00:00 23 0 Calma 9 Sudeste 0 -- -- 31
2020-09-08 19:00:00 24.1 6 Sudeste 15 Nordeste 0 -- -- 28
2020-09-08 18:00:00 -- -- -- -- -- -- -- -- --
2020-09-08 17:00:00 -- -- -- -- -- -- -- -- --
2020-09-08 16:00:00 -- -- -- -- -- -- -- -- --
2020-09-08 15:00:00 -- -- -- -- -- -- -- -- --
2020-09-08 14:00:00 -- -- -- -- -- -- -- -- --
2020-09-08 13:00:00 -- -- -- -- -- -- -- -- --
2020-09-08 12:00:00 -- -- -- -- -- -- -- -- --
2020-09-08 11:00:00 -- -- -- -- -- -- -- -- --
2020-09-08 10:00:00 15.5 -- -- -- -- -- -- -- --
2020-09-08 09:00:00 12.2 6 Nordeste 15 Este 0 -- -- 60
2020-09-08 08:00:00 10.8 6 Nordeste 13 Nordeste 0 -- -- 63
2020-09-08 07:00:00 10.2 2 Este 6 Este 0 -- -- 65
2020-09-08 06:00:00 11.3 -- -- -- -- 0 -- -- --
2020-09-08 05:00:00 12.3 3 Este 19 Nordeste 0 -- -- 57
2020-09-08 04:00:00 12.8 5 Este 27 Nordeste 0 -- -- 54
2020-09-08 03:00:00 13.5 7 Este 24 Este 0 -- -- 49
2020-09-08 02:00:00 14.3 5 Este 19 Este 0 -- -- 45
2020-09-08 01:00:00 15.2 5 Este 17 Este 0 -- -- 44
2020-09-08 00:00:00 17.1 6 Este 20 Este 0 -- -- 39
2020-09-07 23:00:00 18.5 6 Este 23 Este 0 -- -- 37
2020-09-07 22:00:00 20.2 5 Este 16 Este 0 -- -- 36
2020-09-07 21:00:00 21.5 4 Este 11 Nordeste 0 -- -- 28
2020-09-07 20:00:00 23.8 6 Sudeste 23 Sudeste 0 -- -- 26
2020-09-07 19:00:00 24.9 9 Sudeste 23 Sudeste 0 -- -- 23
2020-09-07 18:00:00 25.2 7 Este 23 Sudeste 0 -- -- 23
2020-09-07 17:00:00 24.9 10 Sudeste 22 Este 0 -- -- 27
2020-09-07 16:00:00 24.2 6 Sudeste 22 Nordeste 0 -- -- 27
2020-09-07 15:00:00 23.9 8 Este 23 Norte 0 -- -- 29
2020-09-07 14:00:00 22.5 8 Este 23 Sudeste 0 -- -- 33
2020-09-07 13:00:00 22 10 Este 28 Este 0 -- -- 36
2020-09-07 12:00:00 20.5 9 Este 28 Este 0 -- -- 41
2020-09-07 11:00:00 18.2 9 Este 22 Nordeste 0 -- -- 46
2020-09-07 10:00:00 15.8 7 Este 19 Este 0 -- -- 55
2020-09-07 09:00:00 12.7 5 Este 13 Este 0 -- -- 65
2020-09-07 08:00:00 11.9 3 Este 15 Este 0 -- -- 66
2020-09-07 07:00:00 12.4 5 Este 17 Este 0 -- -- 64
2020-09-07 06:00:00 13.6 5 Este 17 Nordeste 0 -- -- 61
2020-09-07 05:00:00 14.4 7 Este 15 Nordeste 0 -- -- 58
2020-09-07 04:00:00 15.1 4 Este 13 Sudeste 0 -- -- 56
2020-09-07 03:00:00 15.9 4 Este 12 Sudeste 0 -- -- 57
2020-09-07 02:00:00 17.4 5 Este 17 Este 0 -- -- 54
2020-09-07 01:00:00 19.7 6 Este 16 Sudeste 0 -- -- 49
2020-09-07 00:00:00 22 5 Este 15 Este 0 -- -- 41
2020-09-06 23:00:00 23.3 6 Nordeste 12 Nordeste 0 -- -- 45
2020-09-06 22:00:00 26.2 5 Norte 13 Norte 0 -- -- 32
2020-09-06 21:00:00 27.6 5 Nordeste 21 Norte 0 -- -- 33
2020-09-06 20:00:00 30.2 10 Noroeste 22 Norte 0 -- -- 27
2020-09-06 19:00:00 30.8 3 Oeste 22 Norte 0 -- -- 24
2020-09-06 18:00:00 30.5 2 Oeste 21 Noroeste 0 -- -- 25
2020-09-06 17:00:00 30.1 5 Sudeste 18 Sudeste 0 -- -- 26
2020-09-06 16:00:00 30 5 Oeste 19 Sudoeste 0 -- -- 25
2020-09-06 15:00:00 29.8 3 Sur 16 Sudoeste 0 -- -- 26
2020-09-06 14:00:00 28.9 5 Sudeste 15 Sur 0 -- -- 26
2020-09-06 13:00:00 27.7 5 Sur 15 Sudeste 0 -- -- 27
2020-09-06 12:00:00 26.1 6 Sudeste 13 Este 0 -- -- 32
2020-09-06 11:00:00 24.6 5 Este 13 Sudeste 0 -- -- 40
2020-09-06 10:00:00 21.5 4 Este 12 Este 0 -- -- 48
2020-09-06 09:00:00 17.7 3 Este 9 Nordeste 0 -- -- 62
2020-09-06 08:00:00 14.9 0 Calma 5 Sudeste 0 -- -- 69
2020-09-06 07:00:00 15.8 2 Este 11 Este 0 -- -- 61
2020-09-06 06:00:00 16.1 2 Nordeste 3 Norte 0 -- -- 56
2020-09-06 05:00:00 16.9 0 Calma 4 Sudeste 0 -- -- 54
2020-09-06 04:00:00 18 0 Calma 9 Sudeste 0 -- -- 52
2020-09-06 03:00:00 20.1 0 Calma 8 Nordeste 0 -- -- 50
2020-09-06 02:00:00 21.2 3 Nordeste 11 Este 0 -- -- 49
2020-09-06 01:00:00 22 4 Este 18 Nordeste 0 -- -- 44
2020-09-06 00:00:00 23.9 9 Nordeste 15 Nordeste 0 -- -- 37
2020-09-05 23:00:00 22.8 4 Noroeste 6 Noroeste 0 -- -- 35
2020-09-05 22:00:00 23.5 0 Calma 5 Sudoeste 0 -- -- 34
2020-09-05 21:00:00 25.8 0 Calma 6 Sur 0 -- -- 31
2020-09-05 20:00:00 29.6 3 Sudeste 13 Sudeste 0 -- -- 26
2020-09-05 19:00:00 30.6 5 Sudeste 16 Sudeste 0 -- -- 24
2020-09-05 18:00:00 30.5 4 Sur 14 Sudeste 0 -- -- 25
2020-09-05 17:00:00 30.3 9 Sudeste 16 Sur 0 -- -- 26
2020-09-05 16:00:00 29.9 5 Este 17 Sur 0 -- -- 27
2020-09-05 15:00:00 29.7 6 Sudeste 18 Sur 0 -- -- 29
2020-09-05 14:00:00 28.5 6 Sur 14 Sudoeste 0 -- -- 33
2020-09-05 13:00:00 27.1 4 Este 10 Sudeste 0 -- -- 40
2020-09-05 12:00:00 25.2 4 Sudeste 11 Este 0 -- -- 45
2020-09-05 11:00:00 23.5 4 Este 9 Nordeste 0 -- -- 48
2020-09-05 10:00:00 21.1 4 Sudeste 6 Sudeste 0 -- -- 57
2020-09-05 09:00:00 17.6 2 Este 7 Noroeste 0 -- -- 63
2020-09-05 08:00:00 15.1 0 Calma 4 Norte 0 -- -- 71
2020-09-05 07:00:00 14.8 0 Calma 2 Nordeste 0 -- -- 67
2020-09-05 06:00:00 15.2 0 Calma 2 Este 0 -- -- 64
2020-09-05 05:00:00 15.5 0 Calma 3 Este 0 -- -- 53
2020-09-05 04:00:00 16.5 0 Calma 3 Nordeste 0 -- -- 52
2020-09-05 03:00:00 17.9 0 Calma 4 Sudoeste 0 -- -- 47
2020-09-05 02:00:00 18.5 0 Calma 2 Oeste 0 -- -- 44
2020-09-05 01:00:00 18.9 0 Calma 0 Calma 0 -- -- 42
2020-09-05 00:00:00 20 0 Calma 3 Noroeste 0 -- -- 41
2020-09-04 23:00:00 21.1 0 Calma 5 Sudoeste 0 -- -- 39
2020-09-04 22:00:00 22.4 0 Calma 5 Sur 0 -- -- 37
2020-09-04 21:00:00 25.2 0 Calma 5 Sur 0 -- -- 33
2020-09-04 20:00:00 28.8 2 Sur 13 Sudeste 0 -- -- 26
2020-09-04 19:00:00 29.3 3 Oeste 14 Sur 0 -- -- 27
2020-09-04 18:00:00 29.4 5 Sudeste 17 Sudeste 0 -- -- 26
2020-09-04 17:00:00 29.2 6 Sudeste 16 Sur 0 -- -- 28
2020-09-04 16:00:00 29 8 Sudeste 20 Sur 0 -- -- 31
2020-09-04 15:00:00 28.7 7 Sur 17 Sur 0 -- -- 34
2020-09-04 14:00:00 27.7 6 Sur 14 Sudeste 0 -- -- 37
2020-09-04 13:00:00 26.6 8 Sur 15 Sur 0 -- -- 39
2020-09-04 12:00:00 25.3 5 Sudeste 18 Sudeste 0 -- -- 43
2020-09-04 11:00:00 23.7 4 Este 10 Sudeste 0 -- -- 47
2020-09-04 10:00:00 21 5 Este 10 Sudeste 0 -- -- 51
2020-09-04 09:00:00 17.4 3 Sudeste 6 Este 0 -- -- 63
2020-09-04 08:00:00 15.3 0 Calma 4 Sudeste 0 -- -- 71
2020-09-04 07:00:00 15.9 0 Calma 5 Nordeste 0 -- -- 71
2020-09-04 06:00:00 16.1 0 Calma 3 Norte 0 -- -- 65
2020-09-04 05:00:00 17.5 3 Norte 8 Norte 0 -- -- 55
2020-09-04 04:00:00 16.9 2 Nordeste 6 Norte 0 -- -- 48
2020-09-04 03:00:00 17.6 3 Este 9 Sudeste 0 -- -- 39
2020-09-04 02:00:00 19.2 2 Este 11 Sudeste 0 -- -- 38
2020-09-04 01:00:00 22 2 Este 13 Noroeste 0 -- -- 35
2020-09-04 00:00:00 22.5 6 Norte 12 Noroeste 0 -- -- 32
2020-09-03 23:00:00 19.6 4 Norte 6 Norte 0 -- -- 36
2020-09-03 22:00:00 21.1 0 Calma 3 Sudeste 0 -- -- 33
2020-09-03 21:00:00 24.5 0 Calma 9 Sudeste 0 -- -- 29
2020-09-03 20:00:00 28.2 4 Sudeste 12 Sudeste 0 -- -- 25
2020-09-03 19:00:00 28.6 4 Sudeste 18 Sur 0 -- -- 26
2020-09-03 18:00:00 28.9 6 Sudeste 17 Sudeste 0 -- -- 26
2020-09-03 17:00:00 28.4 5 Este 17 Sur 0 -- -- 27
2020-09-03 16:00:00 27.9 5 Sur 17 Sur 0 -- -- 27
2020-09-03 15:00:00 28.8 8 Sur 16 Sur 0 -- -- 26
2020-09-03 14:00:00 27.6 6 Sudeste 15 Sudeste 0 -- -- 36
2020-09-03 13:00:00 25.5 4 Nordeste 17 Sudeste 0 -- -- 39
2020-09-03 12:00:00 23.5 3 Sudeste 11 Sudeste 0 -- -- 46
2020-09-03 11:00:00 22.2 4 Sudeste 10 Este 0 -- -- 47
2020-09-03 10:00:00 19.5 4 Este 8 Sudeste 0 -- -- 46
2020-09-03 09:00:00 16 2 Este 5 Nordeste 0 -- -- 48
2020-09-03 08:00:00 14.1 0 Calma 6 Este 0 -- -- 51
2020-09-03 07:00:00 13.4 0 Calma 4 Nordeste 0 -- -- 53
2020-09-03 06:00:00 14.3 2 Sudeste 8 Nordeste 0 -- -- 49
2020-09-03 05:00:00 14.9 0 Calma 12 Nordeste 0 -- -- 47
2020-09-03 04:00:00 16.8 3 Nordeste 10 Nordeste 0 -- -- 43
2020-09-03 03:00:00 17.1 5 Nordeste 14 Nordeste 0 -- -- 41
2020-09-03 02:00:00 18.2 5 Nordeste 13 Nordeste 0 -- -- 39
2020-09-03 01:00:00 18.6 3 Este 11 Este 0 -- -- 39
2020-09-03 00:00:00 17.2 0 Calma 5 Nordeste 0 -- -- 45
2020-09-02 23:00:00 18.5 0 Calma 7 Norte 0 -- -- 40
2020-09-02 22:00:00 20.4 0 Calma 5 Sur 0 -- -- 34
2020-09-02 21:00:00 23.5 0 Calma 9 Sur 0 -- -- 31
2020-09-02 20:00:00 26.6 5 Sudeste 14 Sudeste 0 -- -- 26
2020-09-02 19:00:00 26.9 4 Sur 16 Sudoeste 0 -- -- 28
2020-09-02 18:00:00 27 7 Sudeste 17 Sur 0 -- -- 25
2020-09-02 17:00:00 26.6 5 Norte 15 Norte 0 -- -- 26
2020-09-02 16:00:00 26.4 6 Sudeste 15 Sudeste 0 -- -- 29
2020-09-02 15:00:00 25.6 3 Sudoeste 15 Noroeste 0 -- -- 29
2020-09-02 14:00:00 24.8 5 Noroeste 16 Sudeste 0 -- -- 30
2020-09-02 13:00:00 24 3 Sudeste 17 Este 0 -- -- 33
2020-09-02 12:00:00 22.6 8 Sudeste 17 Este 0 -- -- 37
2020-09-02 11:00:00 20.2 7 Este 18 Este 0 -- -- 42
2020-09-02 10:00:00 18 6 Este 22 Nordeste 0 -- -- 48
2020-09-02 09:00:00 15 6 Este 15 Este 0 -- -- 51
2020-09-02 08:00:00 12.8 3 Este 10 Este 0 -- -- 56
2020-09-02 07:00:00 13.5 3 Este 13 Este 0 -- -- 54
2020-09-02 06:00:00 13.5 4 Este 12 Este 0 -- -- 54
2020-09-02 05:00:00 15.2 3 Este 15 Este 0 -- -- 49
2020-09-02 04:00:00 16.7 6 Este 18 Nordeste 0 -- -- 45
2020-09-02 03:00:00 17.6 8 Nordeste 22 Nordeste 0 -- -- 43
2020-09-02 02:00:00 18.3 9 Nordeste 23 Este 0 -- -- 39
2020-09-02 01:00:00 17.8 6 Nordeste 19 Nordeste 0 -- -- 38
2020-09-02 00:00:00 15.8 2 Sudeste 8 Nordeste 0 -- -- 38
2020-09-01 23:00:00 16.3 0 Calma 3 Sur 0 -- -- 37
2020-09-01 22:00:00 19.2 0 Calma 4 Sur 0 -- -- 32
2020-09-01 21:00:00 22.5 0 Calma 9 Sudeste 0 -- -- 28
2020-09-01 20:00:00 24.4 3 Sudeste 13 Sur 0 -- -- 25
2020-09-01 19:00:00 25.2 5 Sur 18 Sur 0 -- -- 24
2020-09-01 18:00:00 25.7 6 Sudeste 17 Sur 0 -- -- 24
2020-09-01 17:00:00 24.7 7 Sur 21 Sudoeste 0 -- -- 27
2020-09-01 16:00:00 24.7 6 Sur 17 Sur 0 -- -- 26
2020-09-01 15:00:00 23.1 7 Sur 16 Sudoeste 0 -- -- 28
2020-09-01 14:00:00 24.1 5 Sur 17 Sur 0 -- -- 27
2020-09-01 13:00:00 22.2 4 Sudeste 8 Sudeste 0 -- -- 29
2020-09-01 12:00:00 19.3 2 Este 9 Sudeste 0 -- -- 34
2020-09-01 11:00:00 17.6 3 Nordeste 10 Este 0 -- -- 36
2020-09-01 10:00:00 15.7 0 Calma 8 Este 0 -- -- 40
2020-09-01 09:00:00 15.1 4 Este 10 Sudeste 0 -- -- 43
2020-09-01 08:00:00 14.1 0 Calma 6 Norte 0 -- -- 42
2020-09-01 07:00:00 13.4 2 Sudeste 5 Sudeste 0 -- -- 44
2020-09-01 06:00:00 13.6 2 Este 6 Este 0 -- -- 45
2020-09-01 05:00:00 13.9 3 Este 6 Sudeste 0 -- -- 43
2020-09-01 04:00:00 13.7 0 Calma 4 Este 0 -- -- 44
2020-09-01 03:00:00 13.7 2 Este 6 Este 0 -- -- 43
2020-09-01 02:00:00 13.1 0 Calma 3 Este 0 -- -- 45
2020-09-01 01:00:00 15.3 0 Calma 8 Norte 0 -- -- 39
2020-09-01 00:00:00 16.1 4 Noroeste 7 Noroeste 0 -- -- 36
2020-08-31 23:00:00 15.5 2 Noroeste 4 Noroeste 0 -- -- 40
2020-08-31 22:00:00 16.5 0 Calma 4 Sur 0 -- -- 37
2020-08-31 21:00:00 19.7 3 Sur 6 Sur 0 -- -- 31
2020-08-31 20:00:00 23 4 Sur 18 Sur 0 -- -- 27
2020-08-31 19:00:00 23.1 3 Sur 14 Sudoeste 0 -- -- 26
2020-08-31 18:00:00 23.2 2 Oeste 15 Sudoeste 0 -- -- 27
2020-08-31 17:00:00 22.7 4 Oeste 13 Sudoeste 0 -- -- 27
2020-08-31 16:00:00 22.4 3 Oeste 17 Sudoeste 0 -- -- 28
2020-08-31 15:00:00 21.8 5 Sudoeste 23 Sur 0 -- -- 29
2020-08-31 14:00:00 21.4 -- -- -- -- 0 -- -- --
2020-08-31 13:00:00 20.9 5 Sudoeste 13 Sudoeste 0 -- -- 33
2020-08-31 12:00:00 19.5 4 Sudeste 13 Este 0 -- -- 38
2020-08-31 11:00:00 16.8 5 Nordeste 18 Nordeste 0 -- -- 47
2020-08-31 10:00:00 14.3 6 Nordeste 13 Nordeste 0 -- -- 53
2020-08-31 09:00:00 11.9 5 Este 12 Nordeste 0 -- -- 60
2020-08-31 08:00:00 9.7 5 Nordeste 13 Nordeste 0 -- -- 67
2020-08-31 07:00:00 9.3 3 Este 14 Nordeste 0 -- -- 68
2020-08-31 06:00:00 10.2 6 Nordeste 14 Nordeste 0 -- -- 66
2020-08-31 05:00:00 10.7 6 Nordeste 13 Este 0 -- -- 64
2020-08-31 04:00:00 11.2 5 Nordeste 14 Nordeste 0 -- -- 62
2020-08-31 03:00:00 11.8 4 Nordeste 15 Este 0 -- -- 61
2020-08-31 02:00:00 12 5 Este 13 Este 0 -- -- 55
2020-08-31 01:00:00 12.9 3 Este 10 Este 0 -- -- 48
2020-08-31 00:00:00 14 3 Este 15 Nordeste 0 -- -- 42
2020-08-30 23:00:00 16 7 Nordeste 17 Nordeste 0 -- -- 38
2020-08-30 22:00:00 16.5 4 Nordeste 16 Norte 0 -- -- 37
2020-08-30 21:00:00 18.3 8 Nordeste 27 Nordeste 0 -- -- 32
2020-08-30 20:00:00 19.7 8 Nordeste 23 Norte 0 -- -- 30
2020-08-30 19:00:00 20.6 4 Nordeste 17 Nordeste 0 -- -- 31
2020-08-30 18:00:00 20.8 -- -- -- -- 0 -- -- --
2020-08-30 17:00:00 20.7 4 Norte 18 Nordeste 0 -- -- 31
2020-08-30 16:00:00 20.4 6 Este 19 Nordeste 0 -- -- 32
2020-08-30 15:00:00 20.3 8 Nordeste 21 Este 0 -- -- 32
2020-08-30 14:00:00 19.7 4 Nordeste 29 Nordeste 0 -- -- 36
2020-08-30 13:00:00 19.3 6 Este 21 Este 0 -- -- 38
2020-08-30 12:00:00 17.6 9 Nordeste 22 Este 0 -- -- 40
2020-08-30 11:00:00 16.3 10 Nordeste 24 Nordeste 0 -- -- 44
2020-08-30 10:00:00 13.9 2 Nordeste 10 Sudeste 0 -- -- 53
2020-08-30 09:00:00 10.9 2 Este 7 Este 0 -- -- 63
2020-08-30 08:00:00 8.4 0 Calma 4 Sudeste 0 -- -- 72
2020-08-30 07:00:00 8.6 0 Calma 4 Este 0 -- -- 68
2020-08-30 06:00:00 10.2 2 Este 8 Nordeste 0 -- -- 59
2020-08-30 05:00:00 10.6 2 Este 11 Este 0 -- -- 57
2020-08-30 04:00:00 12 5 Nordeste 18 Nordeste 0 -- -- 51
2020-08-30 03:00:00 12.3 5 Nordeste 26 Nordeste 0 -- -- 52
2020-08-30 02:00:00 12.7 7 Nordeste 27 Nordeste 0 -- -- 55
2020-08-30 01:00:00 13.6 8 Nordeste 24 Nordeste 0 -- -- 56
2020-08-30 00:00:00 14.4 12 Nordeste 27 Nordeste 0 -- -- 54
2020-08-29 23:00:00 15 9 Nordeste 37 Noroeste 0 -- -- 55
2020-08-29 22:00:00 16.3 10 Norte 27 Norte 0 -- -- 48
2020-08-29 21:00:00 17.9 8 Nordeste 27 Norte 0 -- -- 43
2020-08-29 20:00:00 19.1 15 Norte 27 Norte 0 -- -- 40
2020-08-29 19:00:00 18.6 18 Norte 44 Norte 0 -- -- 42
2020-08-29 18:00:00 22 16 Noroeste 29 Noroeste 0 -- -- 32
2020-08-29 17:00:00 20.6 10 Noroeste 24 Norte 0 -- -- 32
2020-08-29 16:00:00 20.7 -- -- -- -- 0 -- -- 31
2020-08-29 15:00:00 21.2 14 Norte 31 Norte 0 -- -- 32
2020-08-29 14:00:00 20.5 10 Norte 27 Norte 0 -- -- 32
2020-08-29 13:00:00 19.6 9 Norte 26 Norte 0 -- -- 36
2020-08-29 12:00:00 18.7 14 Norte 32 Nordeste 0 -- -- 39
2020-08-29 11:00:00 17.9 10 Nordeste 28 Nordeste 0 -- -- 42
2020-08-29 10:00:00 16.1 12 Norte 26 Nordeste 0 -- -- 44
2020-08-29 09:00:00 14.8 11 Nordeste 27 Nordeste 0 -- -- 47
2020-08-29 08:00:00 13.5 7 Nordeste 19 Nordeste 0 -- -- 51
2020-08-29 07:00:00 -- -- -- -- -- -- -- -- --
2020-08-29 06:00:00 -- -- -- -- -- -- -- -- --
2020-08-29 05:00:00 -- -- -- -- -- -- -- -- --
2020-08-29 04:00:00 -- -- -- -- -- -- -- -- --
2020-08-29 03:00:00 -- -- -- -- -- -- -- -- --
2020-08-29 02:00:00 -- -- -- -- -- -- -- -- --
2020-08-29 01:00:00 -- -- -- -- -- -- -- -- --
2020-08-29 00:00:00 -- -- -- -- -- -- -- -- --
2020-08-28 23:00:00 22.1 -- -- -- -- -- -- -- --
2020-08-28 22:00:00 -- -- -- -- -- -- -- -- --
2020-08-28 21:00:00 25.1 11 Noroeste 27 Noroeste 0 -- -- 18
2020-08-28 20:00:00 27.5 15 Noroeste 31 Noroeste 0 -- -- 16
2020-08-28 19:00:00 -- -- -- -- -- -- -- -- --
2020-08-28 18:00:00 -- -- -- -- -- -- -- -- --
2020-08-28 17:00:00 -- -- -- -- -- -- -- -- --
2020-08-28 16:00:00 -- -- -- -- -- -- -- -- --
2020-08-28 15:00:00 -- -- -- -- -- -- -- -- --
2020-08-28 14:00:00 -- -- -- -- -- -- -- -- --
2020-08-28 13:00:00 -- -- -- -- -- -- -- -- --
2020-08-28 12:00:00 -- -- -- -- -- -- -- -- --
2020-08-28 11:00:00 25.8 3 Sudoeste 13 Sur 0 -- -- 42
2020-08-28 10:00:00 24.5 7 Sur 13 Sudeste 0 -- -- 48
2020-08-28 09:00:00 21.7 4 Sudeste 10 Sur 0 -- -- 51
2020-08-28 08:00:00 20.4 2 Sudeste 6 Sur 0 -- -- 51
2020-08-28 07:00:00 20.9 4 Sudoeste 6 Sudoeste 0 -- -- 45
2020-08-28 06:00:00 21 2 Sudoeste 4 Sudoeste 0 -- -- 45
2020-08-28 05:00:00 19.5 0 Calma 3 Este 0 -- -- 47
2020-08-28 04:00:00 20.8 3 Este 5 Este 0 -- -- 44
2020-08-28 03:00:00 22.1 4 Sur 9 Sur 0 -- -- 41
2020-08-28 02:00:00 22.3 0 Calma 4 Norte 0 -- -- 41
2020-08-28 01:00:00 22.6 3 Noroeste 5 Norte 0 -- -- 39
2020-08-28 00:00:00 22.8 3 Norte 4 Norte 0 -- -- 37